Time;durP1;ratioP1;P1;durP2;ratioP2;P2;SDS_P1;SDS_P2;PMS_P1;PMS_P2;Temp;Humidity;BMP_temperature;BMP_pressure;BME280_temperature;BME280_humidity;BME280_pressure;Samples;Min_cycle;Max_cycle;Signal;HPM_P1;HPM_P2
2021/10/23 00:01:51;;;;;;;5.03;3.33;;;7.80;99.90;;;;;;5070120;28;20228;-75
2021/10/23 00:04:17;;;;;;;4.93;2.58;;;7.90;99.90;;;;;;5069869;28;20193;-75
2021/10/23 00:06:44;;;;;;;6.20;3.30;;;7.90;99.90;;;;;;5071561;28;20196;-74
2021/10/23 00:09:09;;;;;;;6.78;3.47;;;7.90;99.90;;;;;;5071437;28;20216;-75
2021/10/23 00:11:35;;;;;;;4.20;3.17;;;7.90;99.90;;;;;;5070056;28;20161;-75
2021/10/23 00:14:01;;;;;;;5.10;3.60;;;7.80;99.90;;;;;;5069889;28;20313;-75
2021/10/23 00:16:27;;;;;;;3.45;2.58;;;7.80;99.90;;;;;;5071225;28;20299;-76
2021/10/23 00:18:53;;;;;;;3.35;2.50;;;7.70;99.90;;;;;;5071454;28;20163;-73
2021/10/23 00:21:19;;;;;;;6.13;3.50;;;7.60;99.90;;;;;;5069924;28;20619;-74
2021/10/23 00:23:45;;;;;;;5.45;3.50;;;7.50;99.90;;;;;;5071162;28;20185;-75
2021/10/23 00:26:11;;;;;;;4.68;2.95;;;7.40;99.90;;;;;;5069941;28;20193;-75
2021/10/23 00:28:38;;;;;;;4.57;3.35;;;7.40;99.90;;;;;;5071321;28;20164;-75
2021/10/23 00:31:04;;;;;;;4.43;3.28;;;7.40;99.90;;;;;;5071106;28;20164;-75
2021/10/23 00:33:31;;;;;;;4.07;3.15;;;7.50;99.90;;;;;;5076234;28;20602;-75
2021/10/23 00:35:57;;;;;;;4.55;3.10;;;7.50;99.90;;;;;;5089845;28;20199;-75
2021/10/23 00:38:23;;;;;;;4.50;3.60;;;7.50;99.90;;;;;;5090155;28;20191;-75
2021/10/23 00:40:49;;;;;;;3.83;2.67;;;7.50;99.90;;;;;;5091231;28;20166;-74
2021/10/23 00:43:15;;;;;;;8.02;3.35;;;7.50;99.90;;;;;;5089456;28;20200;-73
2021/10/23 00:45:41;;;;;;;4.93;3.13;;;7.50;99.90;;;;;;5076381;28;20220;-74
2021/10/23 00:48:06;;;;;;;5.05;3.53;;;7.50;99.90;;;;;;5069343;28;20689;-73
2021/10/23 00:50:33;;;;;;;5.65;3.35;;;7.50;99.90;;;;;;5069226;28;20175;-73
2021/10/23 00:52:59;;;;;;;4.45;3.42;;;7.50;99.90;;;;;;5070940;28;20177;-73
2021/10/23 00:55:25;;;;;;;7.88;3.17;;;7.40;99.90;;;;;;5070821;28;20306;-73
2021/10/23 01:00:16;;;;;;;6.70;2.97;;;7.40;99.90;;;;;;5794858;22;20376;-75
2021/10/23 01:02:42;;;;;;;4.97;3.30;;;7.40;99.90;;;;;;5032102;28;20201;-76
2021/10/23 01:05:09;;;;;;;5.57;3.00;;;7.30;99.90;;;;;;5051556;28;20188;-77
2021/10/23 01:07:36;;;;;;;6.78;3.53;;;7.40;99.90;;;;;;5033633;28;20168;-76
2021/10/23 01:10:08;;;;;;;4.43;2.53;;;7.30;99.90;;;;;;5019472;28;20171;-76
2021/10/23 01:12:35;;;;;;;5.32;3.30;;;7.30;99.90;;;;;;5013737;28;20209;-76
2021/10/23 01:15:16;;;;;;;6.57;3.40;;;7.30;99.90;;;;;;5013950;28;20177;-76
2021/10/23 01:17:42;;;;;;;5.47;3.33;;;7.20;99.90;;;;;;5025266;28;20548;-77
2021/10/23 01:20:08;;;;;;;5.93;3.33;;;7.10;99.90;;;;;;5013778;28;20169;-77
2021/10/23 01:22:34;;;;;;;6.68;2.90;;;7.20;99.90;;;;;;5031183;28;20165;-76
2021/10/23 01:25:00;;;;;;;6.40;3.50;;;7.20;99.90;;;;;;5031354;28;20551;-76
2021/10/23 01:27:26;;;;;;;5.93;3.58;;;7.20;99.90;;;;;;5031348;28;20218;-76
2021/10/23 01:29:52;;;;;;;7.10;3.03;;;7.20;99.90;;;;;;5013565;28;20162;-76
2021/10/23 01:32:18;;;;;;;3.53;2.88;;;7.30;99.90;;;;;;5048020;28;20204;-76
2021/10/23 01:34:44;;;;;;;6.13;3.30;;;7.20;99.90;;;;;;5051182;28;20161;-76
2021/10/23 01:37:10;;;;;;;5.82;3.10;;;7.20;99.90;;;;;;5033243;28;20629;-75
2021/10/23 01:39:36;;;;;;;6.43;2.92;;;7.10;99.90;;;;;;5033240;28;20275;-76
2021/10/23 01:42:03;;;;;;;6.07;3.38;;;7.10;99.90;;;;;;5050846;28;20280;-76
2021/10/23 01:44:33;;;;;;;6.13;3.08;;;7.20;99.90;;;;;;5033142;28;20244;-78
2021/10/23 01:47:00;;;;;;;6.50;3.25;;;7.10;99.90;;;;;;5050213;28;20197;-76
2021/10/23 01:49:26;;;;;;;5.78;3.10;;;7.10;99.90;;;;;;5050781;28;20165;-77
2021/10/23 01:51:52;;;;;;;5.50;2.75;;;7.10;99.90;;;;;;5050790;28;20158;-77
2021/10/23 01:54:18;;;;;;;3.67;2.78;;;7.00;99.90;;;;;;5032985;28;20174;-77
2021/10/23 01:56:44;;;;;;;9.77;3.63;;;6.90;99.90;;;;;;5050486;28;20272;-78
2021/10/23 01:59:10;;;;;;;10.30;2.97;;;6.90;99.90;;;;;;5050686;28;20180;-79
2021/10/23 02:01:37;;;;;;;4.72;3.22;;;6.80;99.90;;;;;;5050425;28;20209;-78
2021/10/23 02:04:04;;;;;;;5.43;3.35;;;6.80;99.90;;;;;;5050417;28;20243;-76
2021/10/23 02:06:30;;;;;;;5.78;3.15;;;6.80;99.90;;;;;;5049145;28;20243;-78
2021/10/23 02:08:55;;;;;;;4.70;2.78;;;6.90;99.90;;;;;;5050318;28;20157;-78
2021/10/23 02:11:22;;;;;;;3.05;2.40;;;6.90;99.90;;;;;;5048997;28;20173;-79
2021/10/23 02:13:48;;;;;;;7.50;3.05;;;6.70;99.90;;;;;;5050299;28;20164;-78
2021/10/23 02:16:14;;;;;;;4.28;2.70;;;6.50;99.90;;;;;;5048986;28;20564;-78
2021/10/23 02:18:40;;;;;;;4.57;2.55;;;6.50;99.90;;;;;;5050180;28;20173;-79
2021/10/23 02:21:07;;;;;;;3.05;2.63;;;6.50;99.90;;;;;;5049765;28;20618;-76
2021/10/23 02:23:34;;;;;;;5.15;2.67;;;6.50;99.90;;;;;;5050195;28;20546;-78
2021/10/23 02:26:01;;;;;;;7.07;2.88;;;6.60;99.90;;;;;;5048855;28;20193;-78
2021/10/23 02:28:28;;;;;;;5.75;2.53;;;6.60;99.90;;;;;;5048896;28;20259;-78
2021/10/23 02:30:54;;;;;;;4.35;2.67;;;6.60;99.90;;;;;;5048971;28;20618;-78
2021/10/23 02:33:20;;;;;;;5.80;2.13;;;6.60;99.90;;;;;;5048623;28;20192;-79
2021/10/23 02:35:46;;;;;;;2.58;1.80;;;6.60;99.90;;;;;;5048592;28;20224;-79
2021/10/23 02:38:12;;;;;;;3.17;1.83;;;6.60;99.90;;;;;;5049771;28;20165;-79
2021/10/23 02:40:38;;;;;;;3.30;2.35;;;6.60;99.90;;;;;;5048662;28;20169;-77
2021/10/23 02:43:05;;;;;;;2.38;2.00;;;6.60;99.90;;;;;;5049609;28;20334;-76
2021/10/23 02:45:31;;;;;;;5.10;2.00;;;6.50;99.90;;;;;;5048046;28;20197;-76
2021/10/23 02:47:57;;;;;;;3.70;2.20;;;6.50;99.90;;;;;;5049864;28;20154;-76
2021/10/23 02:50:23;;;;;;;3.85;1.98;;;6.40;99.90;;;;;;5048540;28;20170;-78
2021/10/23 02:52:49;;;;;;;3.58;1.77;;;6.30;99.90;;;;;;5048262;28;20265;-77
2021/10/23 02:55:16;;;;;;;5.88;2.40;;;6.10;99.90;;;;;;5049320;28;20185;-78
2021/10/23 02:57:42;;;;;;;4.43;2.47;;;6.00;99.90;;;;;;5049409;28;20526;-78
2021/10/23 03:00:10;;;;;;;3.88;1.92;;;6.00;99.90;;;;;;5049190;28;20171;-78
2021/10/23 03:02:36;;;;;;;4.45;3.00;;;6.00;99.90;;;;;;5048141;28;20172;-79
2021/10/23 03:05:03;;;;;;;4.72;2.83;;;6.00;99.90;;;;;;5047935;28;20213;-79
2021/10/23 03:07:32;;;;;;;9.35;3.42;;;6.00;99.90;;;;;;5049475;28;20158;-78
2021/10/23 03:09:59;;;;;;;4.35;2.42;;;5.90;99.90;;;;;;5047976;28;20637;-78
2021/10/23 03:12:27;;;;;;;5.88;2.80;;;5.90;99.90;;;;;;5049356;28;20152;-78
2021/10/23 03:14:53;;;;;;;4.88;3.25;;;5.90;99.90;;;;;;5049217;28;20248;-78
2021/10/23 03:17:20;;;;;;;5.38;3.63;;;5.90;99.90;;;;;;5049337;28;20184;-78
2021/10/23 03:19:46;;;;;;;3.80;2.42;;;5.80;99.90;;;;;;5048017;28;20180;-79
2021/10/23 03:22:12;;;;;;;8.60;3.75;;;5.80;99.90;;;;;;5047775;28;20540;-78
2021/10/23 03:24:38;;;;;;;7.22;3.70;;;5.70;99.90;;;;;;5049079;28;20662;-78
2021/10/23 03:27:04;;;;;;;7.05;4.40;;;5.70;99.90;;;;;;5047840;28;20200;-78
2021/10/23 03:29:30;;;;;;;6.70;3.70;;;5.80;99.90;;;;;;5047608;28;20193;-77
2021/10/23 03:31:55;;;;;;;5.05;2.97;;;5.80;99.90;;;;;;5048228;28;20200;-79
2021/10/23 03:34:21;;;;;;;4.88;2.78;;;5.80;99.90;;;;;;5048245;28;20165;-79
2021/10/23 03:36:47;;;;;;;7.68;4.00;;;5.90;99.90;;;;;;5048953;28;20197;-79
2021/10/23 03:39:13;;;;;;;5.43;3.63;;;5.90;99.90;;;;;;5048988;28;20184;-79
2021/10/23 03:41:40;;;;;;;5.25;3.30;;;5.90;99.90;;;;;;5047755;28;20203;-80
2021/10/23 03:44:07;;;;;;;5.15;3.15;;;5.90;99.90;;;;;;5047873;28;20680;-80
2021/10/23 03:46:34;;;;;;;4.68;3.22;;;5.90;99.90;;;;;;5048850;28;20192;-80
2021/10/23 03:48:59;;;;;;;9.00;3.38;;;5.90;99.90;;;;;;5048961;28;20225;-79
2021/10/23 03:51:25;;;;;;;6.03;3.15;;;5.90;99.90;;;;;;5048915;28;20153;-79
2021/10/23 03:53:51;;;;;;;7.35;2.95;;;5.80;99.90;;;;;;5047687;28;20180;-80
2021/10/23 03:56:18;;;;;;;4.93;2.85;;;5.90;99.90;;;;;;5047548;28;20201;-78
2021/10/23 03:58:44;;;;;;;4.40;3.33;;;5.80;99.90;;;;;;5047665;28;20176;-78
2021/10/23 04:01:10;;;;;;;7.40;3.30;;;5.80;99.90;;;;;;5048596;28;20217;-78
2021/10/23 04:03:35;;;;;;;4.55;3.60;;;5.80;99.90;;;;;;5048743;28;20197;-80
2021/10/23 04:06:01;;;;;;;4.32;2.95;;;5.70;99.90;;;;;;5048961;28;20197;-80
2021/10/23 04:08:27;;;;;;;5.40;2.92;;;5.60;99.90;;;;;;5048309;28;20168;-80
2021/10/23 04:10:53;;;;;;;5.60;2.97;;;5.50;99.90;;;;;;5048743;28;20157;-77
2021/10/23 04:13:19;;;;;;;6.65;3.15;;;5.60;99.90;;;;;;5047356;28;20237;-79
2021/10/23 04:15:45;;;;;;;7.03;3.50;;;5.50;99.90;;;;;;5047234;28;20228;-79
2021/10/23 04:18:11;;;;;;;5.15;3.10;;;5.50;99.90;;;;;;5048636;28;20162;-81
2021/10/23 04:20:37;;;;;;;5.65;3.60;;;5.30;99.90;;;;;;5047229;28;20185;-79
2021/10/23 04:23:03;;;;;;;6.70;3.63;;;5.30;99.90;;;;;;5030599;28;20181;-78
2021/10/23 04:25:29;;;;;;;4.68;3.28;;;5.30;99.90;;;;;;5047323;28;20201;-78
2021/10/23 04:27:55;;;;;;;4.93;3.90;;;5.30;99.90;;;;;;5048544;28;20217;-77
2021/10/23 04:30:21;;;;;;;10.27;3.63;;;5.40;99.90;;;;;;5048414;28;20157;-77
2021/10/23 04:32:47;;;;;;;6.55;4.20;;;5.40;99.90;;;;;;5046982;28;20233;-77
2021/10/23 04:35:13;;;;;;;5.18;3.22;;;5.30;99.90;;;;;;5047122;28;20194;-77
2021/10/23 04:37:40;;;;;;;5.18;3.65;;;5.30;99.90;;;;;;5048567;28;20230;-79
2021/10/23 04:40:08;;;;;;;4.60;3.65;;;5.30;99.90;;;;;;5047945;28;20215;-78
2021/10/23 04:42:34;;;;;;;6.72;4.15;;;5.20;99.90;;;;;;5046907;28;20162;-78
2021/10/23 04:45:00;;;;;;;5.28;4.00;;;5.20;99.90;;;;;;5047926;28;20189;-79
2021/10/23 04:47:26;;;;;;;8.15;4.18;;;5.10;99.90;;;;;;5051020;28;20161;-78
2021/10/23 04:49:51;;;;;;;7.10;4.18;;;5.20;99.90;;;;;;5049565;28;20220;-78
2021/10/23 04:52:18;;;;;;;5.47;3.67;;;5.20;99.90;;;;;;5050939;28;20161;-79
2021/10/23 04:54:43;;;;;;;6.40;4.40;;;5.20;99.90;;;;;;5049672;28;20515;-79
2021/10/23 04:57:09;;;;;;;4.43;3.75;;;5.20;99.90;;;;;;5051755;28;20172;-79
2021/10/23 04:59:35;;;;;;;5.30;2.97;;;5.20;99.90;;;;;;5050504;28;20201;-79
2021/10/23 05:02:01;;;;;;;5.35;3.90;;;5.10;99.90;;;;;;5051441;28;20255;-79
2021/10/23 05:04:27;;;;;;;5.38;3.40;;;5.10;99.90;;;;;;5050228;28;20224;-79
2021/10/23 05:06:53;;;;;;;4.88;3.42;;;5.10;99.90;;;;;;5051590;28;20173;-78
2021/10/23 05:09:19;;;;;;;4.28;3.05;;;5.10;99.90;;;;;;5050301;28;20205;-78
2021/10/23 05:11:45;;;;;;;8.55;4.43;;;5.00;99.90;;;;;;5032312;28;20181;-78
2021/10/23 05:14:10;;;;;;;8.90;3.65;;;5.00;99.90;;;;;;5051151;28;20208;-79
2021/10/23 05:16:36;;;;;;;5.28;3.30;;;5.00;99.90;;;;;;5033359;28;20176;-80
2021/10/23 05:19:02;;;;;;;5.15;3.00;;;5.00;99.90;;;;;;5033422;28;20289;-79
2021/10/23 05:21:28;;;;;;;5.68;3.67;;;5.00;99.90;;;;;;5033314;28;20236;-79
2021/10/23 05:23:57;;;;;;;5.38;3.15;;;5.00;99.90;;;;;;5033379;28;20201;-80
2021/10/23 05:26:23;;;;;;;5.10;3.30;;;5.00;99.90;;;;;;5048934;28;20173;-79
2021/10/23 05:28:49;;;;;;;4.13;3.03;;;4.90;99.90;;;;;;5030803;28;20661;-79
2021/10/23 05:31:15;;;;;;;8.35;3.80;;;4.90;99.90;;;;;;5032613;28;20226;-78
2021/10/23 05:33:41;;;;;;;5.47;3.58;;;4.90;99.90;;;;;;5030966;28;20178;-79
2021/10/23 05:36:06;;;;;;;5.20;3.28;;;4.90;99.90;;;;;;5013751;28;20174;-79
2021/10/23 05:38:32;;;;;;;6.70;4.22;;;5.00;99.90;;;;;;5012996;28;20246;-80
2021/10/23 05:40:58;;;;;;;6.72;4.60;;;5.00;99.90;;;;;;5013259;28;20201;-80
2021/10/23 05:43:24;;;;;;;7.63;4.93;;;4.90;99.90;;;;;;5013190;28;20221;-78
2021/10/23 05:45:50;;;;;;;13.48;8.02;;;5.00;99.90;;;;;;5030877;28;20181;-79
2021/10/23 05:48:16;;;;;;;12.02;6.57;;;5.00;99.90;;;;;;5030847;28;20158;-80
2021/10/23 05:50:42;;;;;;;12.27;5.10;;;5.00;99.90;;;;;;5030606;28;20201;-79
2021/10/23 05:53:07;;;;;;;8.23;5.55;;;5.00;99.90;;;;;;5012967;28;20166;-79
2021/10/23 05:55:33;;;;;;;9.88;6.35;;;5.00;99.90;;;;;;5030354;28;20184;-80
2021/10/23 05:58:01;;;;;;;6.88;5.50;;;5.10;99.90;;;;;;5012340;28;20189;-80
2021/10/23 06:00:27;;;;;;;12.60;5.50;;;5.10;99.90;;;;;;5009625;28;20274;-78
2021/10/23 06:02:55;;;;;;;13.52;4.82;;;5.10;99.90;;;;;;5010551;28;20171;-77
2021/10/23 06:05:21;;;;;;;9.38;5.93;;;5.10;99.90;;;;;;5011235;28;20170;-77
2021/10/23 06:07:47;;;;;;;10.82;5.20;;;5.10;99.90;;;;;;5011514;28;20159;-79
2021/10/23 06:10:13;;;;;;;8.60;5.32;;;5.00;99.90;;;;;;5010963;28;20194;-79
2021/10/23 06:12:40;;;;;;;8.10;5.13;;;5.10;99.90;;;;;;5010898;28;20164;-78
2021/10/23 06:15:07;;;;;;;10.52;5.15;;;5.20;99.90;;;;;;5008977;28;20210;-78
2021/10/23 06:17:33;;;;;;;6.63;4.97;;;5.20;99.90;;;;;;5009018;28;20159;-78
2021/10/23 06:19:59;;;;;;;9.45;5.60;;;5.30;99.90;;;;;;5007425;28;20199;-77
2021/10/23 06:22:25;;;;;;;5.57;3.88;;;5.40;99.90;;;;;;5007486;28;20179;-75
2021/10/23 06:24:51;;;;;;;13.88;6.10;;;5.50;99.90;;;;;;5007237;28;20206;-75
2021/10/23 06:27:17;;;;;;;9.25;6.65;;;5.60;99.90;;;;;;5007416;28;20187;-78
2021/10/23 06:29:43;;;;;;;9.57;6.47;;;5.60;99.90;;;;;;5008938;28;20198;-76
2021/10/23 06:32:09;;;;;;;12.18;6.22;;;5.60;99.90;;;;;;5009093;28;20170;-75
2021/10/23 06:34:38;;;;;;;9.40;5.10;;;5.50;99.90;;;;;;5009025;28;20174;-76
2021/10/23 06:37:05;;;;;;;6.43;4.28;;;5.50;99.90;;;;;;5008874;28;20179;-75
2021/10/23 06:39:30;;;;;;;11.32;4.75;;;5.50;99.90;;;;;;5010198;28;20226;-76
2021/10/23 06:41:56;;;;;;;7.05;4.85;;;5.60;99.90;;;;;;5010315;28;20230;-76
2021/10/23 06:44:22;;;;;;;9.65;5.75;;;5.70;99.90;;;;;;5010117;28;20201;-75
2021/10/23 06:46:48;;;;;;;7.57;5.03;;;5.70;99.90;;;;;;5010243;28;20170;-75
2021/10/23 06:49:14;;;;;;;9.98;5.05;;;5.80;99.90;;;;;;5010010;28;20195;-77
2021/10/23 06:51:40;;;;;;;9.45;5.00;;;5.80;99.90;;;;;;5008788;28;20238;-76
2021/10/23 06:54:06;;;;;;;8.43;5.15;;;5.90;99.90;;;;;;5008683;28;20174;-75
2021/10/23 06:56:32;;;;;;;10.45;5.63;;;6.00;99.90;;;;;;5009550;28;20185;-75
2021/10/23 06:58:58;;;;;;;8.80;5.50;;;6.10;99.90;;;;;;5008232;28;20194;-76
2021/10/23 07:01:24;;;;;;;8.68;4.47;;;6.10;99.90;;;;;;5020480;28;20230;-76
2021/10/23 07:03:51;;;;;;;8.07;4.65;;;6.10;99.90;;;;;;5029282;28;20194;-76
2021/10/23 07:06:16;;;;;;;9.05;5.50;;;6.20;99.90;;;;;;5029300;28;20162;-76
2021/10/23 07:08:42;;;;;;;7.75;5.07;;;6.30;99.90;;;;;;5011633;28;20201;-76
2021/10/23 07:11:08;;;;;;;7.68;4.88;;;6.50;99.90;;;;;;5029370;28;20169;-76
2021/10/23 07:13:35;;;;;;;6.45;4.35;;;6.80;99.90;;;;;;5029235;28;20170;-76
2021/10/23 07:16:02;;;;;;;9.25;4.63;;;7.10;99.90;;;;;;5029209;28;20178;-76
2021/10/23 07:18:28;;;;;;;4.28;3.47;;;7.20;99.90;;;;;;5029097;28;20201;-76
2021/10/23 07:20:54;;;;;;;5.60;3.35;;;7.20;99.90;;;;;;5011428;28;20178;-76
2021/10/23 07:23:20;;;;;;;7.10;3.75;;;7.40;99.90;;;;;;5027939;28;20182;-77
2021/10/23 07:25:47;;;;;;;6.38;4.40;;;7.60;99.90;;;;;;5028661;28;20622;-76
2021/10/23 07:28:14;;;;;;;5.25;3.30;;;7.70;99.90;;;;;;5028982;28;20181;-76
2021/10/23 07:30:41;;;;;;;3.63;3.03;;;8.20;99.90;;;;;;5011278;28;20189;-76
2021/10/23 07:33:07;;;;;;;5.95;3.60;;;8.40;99.90;;;;;;5028917;28;20555;-77
2021/10/23 07:35:33;;;;;;;3.95;3.55;;;8.60;99.90;;;;;;5028928;28;20190;-77
2021/10/23 07:37:59;;;;;;;4.82;3.28;;;8.60;99.90;;;;;;5028761;28;20166;-77
2021/10/23 07:40:25;;;;;;;6.13;3.15;;;8.40;99.90;;;;;;5028531;28;20158;-77
2021/10/23 07:42:51;;;;;;;5.63;3.78;;;8.60;99.90;;;;;;5010844;28;20180;-76
2021/10/23 07:45:17;;;;;;;5.00;3.42;;;8.70;99.90;;;;;;5011021;28;20213;-77
2021/10/23 07:47:44;;;;;;;6.93;4.20;;;9.00;99.90;;;;;;5028829;28;20182;-77
2021/10/23 07:50:11;;;;;;;6.75;3.85;;;9.20;99.90;;;;;;5010874;28;20170;-76
2021/10/23 07:52:37;;;;;;;5.43;3.35;;;9.60;99.90;;;;;;5028740;28;20169;-76
2021/10/23 07:55:08;;;;;;;6.80;3.40;;;9.70;99.90;;;;;;5028493;28;20197;-76
2021/10/23 07:57:35;;;;;;;6.40;3.67;;;9.60;99.90;;;;;;5028822;28;20611;-77
2021/10/23 08:00:03;;;;;;;4.10;3.13;;;9.50;99.90;;;;;;5028713;28;20163;-76
2021/10/23 08:02:28;;;;;;;4.20;3.03;;;9.80;99.90;;;;;;4989502;28;20180;-76
2021/10/23 08:04:54;;;;;;;4.38;3.20;;;10.80;99.90;;;;;;4998970;28;20213;-77
2021/10/23 08:07:21;;;;;;;4.50;3.13;;;12.40;99.90;;;;;;5007376;28;20193;-77
2021/10/23 08:09:47;;;;;;;4.68;3.15;;;14.00;99.90;;;;;;4999887;28;20191;-77
2021/10/23 08:12:13;;;;;;;3.72;3.15;;;15.60;99.90;;;;;;5004418;28;20198;-76
2021/10/23 08:14:39;;;;;;;4.63;2.90;;;15.50;99.90;;;;;;4990044;28;20199;-77
2021/10/23 08:17:06;;;;;;;5.07;3.25;;;15.50;99.90;;;;;;4990692;28;20203;-77
2021/10/23 08:19:32;;;;;;;4.88;3.33;;;15.90;99.90;;;;;;5008556;28;20230;-77
2021/10/23 08:21:58;;;;;;;5.15;2.90;;;15.70;99.90;;;;;;5010746;28;20163;-77
2021/10/23 08:24:24;;;;;;;4.93;2.28;;;15.80;99.90;;;;;;5012306;28;20297;-77
2021/10/23 08:26:50;;;;;;;7.40;2.67;;;15.90;99.90;;;;;;5000126;28;20202;-77
2021/10/23 08:29:16;;;;;;;3.00;2.00;;;16.30;99.90;;;;;;4996502;28;20202;-77
2021/10/23 08:31:46;;;;;;;4.00;1.90;;;17.90;99.90;;;;;;5010692;28;20166;-77
2021/10/23 08:34:11;;;;;;;2.03;1.33;;;18.40;99.90;;;;;;5010882;28;20171;-77
2021/10/23 08:36:38;;;;;;;2.15;1.60;;;17.20;99.90;;;;;;5011065;28;20158;-78
2021/10/23 08:39:05;;;;;;;2.55;1.85;;;17.20;99.90;;;;;;5012630;28;20306;-77
2021/10/23 08:41:32;;;;;;;5.65;1.90;;;17.50;99.90;;;;;;5011761;28;20190;-77
2021/10/23 08:44:05;;;;;;;4.78;1.63;;;18.20;99.90;;;;;;4999369;28;20199;-78
2021/10/23 08:46:35;;;;;;;2.42;1.25;;;18.10;99.90;;;;;;4992819;28;20159;-79
2021/10/23 08:49:03;;;;;;;3.30;1.38;;;18.30;99.90;;;;;;4991520;28;20167;-77
2021/10/23 08:51:31;;;;;;;2.08;1.13;;;17.10;99.90;;;;;;4990897;28;20242;-78
2021/10/23 08:53:58;;;;;;;1.90;1.45;;;17.00;99.90;;;;;;4991247;28;20202;-77
2021/10/23 08:56:24;;;;;;;2.08;0.90;;;17.10;99.90;;;;;;4992694;28;20175;-76
2021/10/23 08:58:50;;;;;;;1.13;0.93;;;16.90;99.90;;;;;;4998883;28;20178;-77
2021/10/23 09:01:16;;;;;;;2.58;1.25;;;17.30;99.90;;;;;;5016706;28;20225;-75
2021/10/23 09:03:44;;;;;;;1.17;0.98;;;17.50;99.90;;;;;;5039832;28;20561;-75
2021/10/23 09:06:15;;;;;;;2.05;1.00;;;17.30;99.90;;;;;;5037257;28;20192;-74
2021/10/23 09:09:18;;;;;;;1.13;0.90;;;16.80;99.90;;;;;;5031423;28;20190;-75
2021/10/23 09:11:47;;;;;;;0.60;0.60;;;16.50;99.90;;;;;;4990059;28;20171;-74
2021/10/23 09:14:31;;;;;;;1.13;0.75;;;16.20;99.90;;;;;;4973282;28;20190;-74
2021/10/23 09:17:02;;;;;;;2.42;1.38;;;16.50;99.90;;;;;;4990021;28;20164;-74
2021/10/23 09:19:44;;;;;;;1.98;0.75;;;16.50;99.90;;;;;;4989842;28;20246;-74
2021/10/23 09:22:29;;;;;;;1.70;0.75;;;16.30;99.90;;;;;;4990083;28;20190;-74
2021/10/23 09:25:35;;;;;;;1.23;0.90;;;16.30;99.90;;;;;;4989473;28;20206;-74
2021/10/23 09:28:05;;;;;;;1.38;0.80;;;16.00;99.90;;;;;;4935232;29;20188;-74
2021/10/23 09:30:35;;;;;;;1.63;0.70;;;16.00;99.90;;;;;;4950503;29;20274;-74
2021/10/23 09:33:14;;;;;;;0.82;0.70;;;16.10;99.90;;;;;;4950841;29;20272;-75
2021/10/23 09:35:41;;;;;;;0.82;0.50;;;16.00;99.90;;;;;;4934918;29;20267;-74
2021/10/23 09:38:09;;;;;;;2.05;0.80;;;16.10;99.90;;;;;;4934997;29;20187;-74
2021/10/23 09:40:38;;;;;;;0.85;0.65;;;16.20;99.90;;;;;;4950916;29;20252;-74
2021/10/23 09:43:25;;;;;;;1.35;0.75;;;16.40;99.90;;;;;;4950915;29;20181;-74
2021/10/23 09:45:57;;;;;;;1.77;0.73;;;17.00;99.90;;;;;;4973132;28;20187;-73
2021/10/23 09:48:30;;;;;;;1.58;0.75;;;17.10;99.90;;;;;;4989464;28;20162;-74
2021/10/23 09:51:19;;;;;;;0.98;0.60;;;17.10;99.90;;;;;;4973533;28;20305;-73
2021/10/23 09:53:47;;;;;;;0.77;0.50;;;16.60;99.90;;;;;;4994506;28;20195;-74
2021/10/23 09:56:23;;;;;;;3.28;0.77;;;16.60;99.90;;;;;;4988768;28;20183;-73
2021/10/23 09:58:52;;;;;;;1.10;0.73;;;16.70;99.90;;;;;;4973334;28;20175;-75
2021/10/23 10:01:21;;;;;;;3.22;0.85;;;16.50;99.90;;;;;;4973003;28;20267;-74
2021/10/23 10:03:50;;;;;;;1.60;0.82;;;16.70;99.90;;;;;;5015325;28;20213;-74
2021/10/23 10:06:16;;;;;;;1.85;0.90;;;17.00;99.90;;;;;;5029837;28;20186;-74
2021/10/23 10:08:43;;;;;;;1.20;0.88;;;16.80;99.90;;;;;;5029138;28;20174;-73
2021/10/23 10:11:11;;;;;;;1.85;0.60;;;16.60;99.90;;;;;;5030235;28;20197;-74
2021/10/23 10:13:39;;;;;;;1.30;1.05;;;16.00;99.90;;;;;;5029017;28;20245;-73
2021/10/23 10:16:06;;;;;;;1.20;0.85;;;16.20;99.90;;;;;;5029797;28;20166;-73
2021/10/23 10:18:33;;;;;;;1.73;0.95;;;16.20;99.90;;;;;;5030304;28;20178;-73
2021/10/23 10:21:00;;;;;;;1.77;0.90;;;16.20;99.90;;;;;;5028799;28;20269;-74
2021/10/23 10:23:40;;;;;;;1.48;0.90;;;16.60;99.90;;;;;;5029996;28;20196;-74
2021/10/23 10:26:23;;;;;;;4.28;1.15;;;16.60;99.90;;;;;;5029291;28;20212;-74
2021/10/23 10:29:22;;;;;;;3.45;1.25;;;16.40;99.90;;;;;;5029609;28;20193;-74
2021/10/23 10:32:43;;;;;;;2.55;1.00;;;16.50;99.90;;;;;;5028676;28;20304;-75
2021/10/23 10:38:23;;;;;;;2.33;1.48;;;16.30;99.90;;;;;;5029993;28;20173;-74
2021/10/23 10:43:18;;;;;;;2.28;1.23;;;16.80;99.90;;;;;;5025024;28;20198;-75
2021/10/23 10:45:46;;;;;;;1.48;0.90;;;16.60;99.90;;;;;;5017521;28;20266;-74
2021/10/23 10:48:21;;;;;;;1.23;0.90;;;16.10;99.90;;;;;;5029390;28;20585;-74
2021/10/23 10:50:51;;;;;;;1.15;1.05;;;15.80;99.90;;;;;;5028579;28;20173;-74
2021/10/23 10:53:17;;;;;;;2.17;1.70;;;15.70;99.90;;;;;;5028018;28;20542;-74
2021/10/23 10:55:45;;;;;;;3.33;0.90;;;16.00;99.90;;;;;;5028320;28;20174;-74
2021/10/23 10:58:13;;;;;;;1.83;1.00;;;16.10;99.90;;;;;;5028108;28;20216;-75
2021/10/23 11:01:01;;;;;;;1.00;0.60;;;15.60;99.90;;;;;;5033561;28;20289;-74
2021/10/23 11:03:42;;;;;;;2.97;1.30;;;15.70;99.90;;;;;;5008021;28;20209;-75
2021/10/23 11:06:27;;;;;;;0.95;0.82;;;15.50;99.90;;;;;;5028598;28;20233;-75
2021/10/23 11:09:11;;;;;;;1.10;1.02;;;15.70;99.90;;;;;;5046415;28;20172;-73
2021/10/23 11:11:47;;;;;;;2.22;1.30;;;16.20;99.90;;;;;;5045416;28;20244;-74
2021/10/23 11:14:24;;;;;;;2.45;1.17;;;16.30;99.90;;;;;;5028643;28;20203;-74
2021/10/23 11:17:01;;;;;;;1.05;0.95;;;15.50;99.90;;;;;;5028852;28;20177;-74
2021/10/23 11:19:49;;;;;;;1.38;1.17;;;15.50;99.90;;;;;;5048914;28;20185;-73
2021/10/23 11:22:19;;;;;;;1.85;1.33;;;15.60;99.90;;;;;;5031219;28;20181;-73
2021/10/23 11:25:07;;;;;;;1.40;1.08;;;15.90;99.90;;;;;;5048668;28;20205;-73
2021/10/23 11:27:43;;;;;;;2.40;1.30;;;16.40;99.90;;;;;;5048770;28;20188;-74
2021/10/23 11:30:14;;;;;;;2.42;1.30;;;16.40;99.90;;;;;;5048965;28;20171;-74
2021/10/23 11:32:54;;;;;;;4.50;1.42;;;15.90;99.90;;;;;;5048348;28;20160;-74
2021/10/23 11:35:30;;;;;;;2.13;1.58;;;15.50;99.90;;;;;;5048784;28;20192;-73
2021/10/23 11:37:56;;;;;;;2.15;1.52;;;15.90;99.90;;;;;;5048809;28;20644;-73
2021/10/23 11:40:23;;;;;;;2.55;1.52;;;16.20;99.90;;;;;;5049143;28;20149;-74
2021/10/23 11:42:51;;;;;;;1.30;1.20;;;17.00;99.90;;;;;;5048912;28;20192;-74
2021/10/23 11:45:20;;;;;;;2.90;1.67;;;17.60;99.90;;;;;;5030573;28;20277;-74
2021/10/23 11:47:47;;;;;;;7.00;1.70;;;17.70;99.30;;;;;;5048609;28;20158;-74
2021/10/23 11:50:21;;;;;;;3.03;1.38;;;17.10;99.60;;;;;;5048798;28;20158;-74
2021/10/23 11:53:03;;;;;;;4.80;2.15;;;16.40;99.90;;;;;;5048676;28;20161;-75
2021/10/23 11:55:38;;;;;;;2.47;1.60;;;16.30;99.90;;;;;;5051296;28;20189;-74
2021/10/23 11:58:07;;;;;;;2.50;1.60;;;16.00;99.90;;;;;;5052717;28;20153;-73
2021/10/23 12:00:35;;;;;;;2.88;1.55;;;15.70;99.90;;;;;;5052390;28;20204;-75
2021/10/23 12:03:04;;;;;;;3.50;2.03;;;15.60;99.90;;;;;;5052712;28;20177;-74
2021/10/23 12:05:36;;;;;;;2.90;1.50;;;15.80;99.90;;;;;;5052617;28;20235;-74
2021/10/23 12:08:24;;;;;;;3.67;1.77;;;15.40;99.90;;;;;;5052446;28;20145;-74
2021/10/23 12:11:08;;;;;;;2.72;1.83;;;15.10;99.90;;;;;;5052491;28;20626;-74
2021/10/23 12:14:02;;;;;;;2.85;2.25;;;14.60;99.90;;;;;;5052474;28;20157;-75
2021/10/23 12:16:43;;;;;;;3.42;1.52;;;14.20;99.90;;;;;;5052403;28;20158;-75
2021/10/23 12:19:15;;;;;;;2.30;1.33;;;14.00;99.90;;;;;;5052384;28;20185;-76
2021/10/23 12:21:45;;;;;;;1.85;1.33;;;13.70;99.90;;;;;;5052374;28;20169;-74
2021/10/23 12:24:33;;;;;;;1.10;1.00;;;13.60;99.90;;;;;;5034093;28;20232;-74
2021/10/23 12:27:21;;;;;;;2.63;1.60;;;13.60;99.90;;;;;;5051849;28;20173;-74
2021/10/23 12:29:50;;;;;;;3.35;1.90;;;13.60;99.90;;;;;;5034365;28;20188;-75
2021/10/23 12:32:17;;;;;;;3.70;2.20;;;13.60;99.90;;;;;;5034586;28;20166;-74
2021/10/23 12:34:55;;;;;;;1.52;1.42;;;13.40;99.90;;;;;;5052019;28;20685;-72
2021/10/23 12:37:27;;;;;;;6.70;2.40;;;13.40;99.90;;;;;;5033975;28;20177;-78
2021/10/23 12:40:09;;;;;;;2.55;1.60;;;13.50;99.90;;;;;;5051961;28;20154;-74
2021/10/23 12:42:56;;;;;;;5.13;2.33;;;13.10;99.90;;;;;;5051842;28;20180;-73
2021/10/23 12:45:26;;;;;;;2.45;1.48;;;13.10;99.90;;;;;;5051103;28;20221;-73
2021/10/23 12:47:53;;;;;;;2.17;1.30;;;13.20;99.90;;;;;;5051818;28;20166;-74
2021/10/23 12:50:22;;;;;;;1.63;1.10;;;13.10;99.90;;;;;;5051653;28;20157;-74
2021/10/23 12:52:53;;;;;;;1.27;1.17;;;13.20;99.90;;;;;;5051743;28;20165;-73
2021/10/23 12:55:20;;;;;;;7.35;1.25;;;13.20;99.90;;;;;;5051523;28;20200;-73
2021/10/23 12:57:47;;;;;;;3.13;1.42;;;13.00;99.90;;;;;;5051786;28;20158;-74
2021/10/23 13:00:14;;;;;;;1.27;1.17;;;13.00;99.90;;;;;;5033389;28;20197;-73
2021/10/23 13:02:41;;;;;;;4.05;1.30;;;12.80;99.90;;;;;;5051402;28;20172;-74
2021/10/23 13:05:08;;;;;;;2.08;1.40;;;12.70;99.90;;;;;;5033337;28;20209;-75
2021/10/23 13:07:34;;;;;;;2.58;1.00;;;12.80;99.90;;;;;;5051542;28;20181;-73
2021/10/23 13:10:00;;;;;;;2.35;1.08;;;12.70;99.90;;;;;;5051482;28;20241;-74